Saint-Ghislain, Belgium
Current Conditions -  °F | °C
As of 10:25 AM on Monday 24 Nov 2014 (Local Time) from EBCV Reporting Station
Clear Clear  
Wind Chill: 46°   Ceiling: Unl
Heat Index: 46°   Visibility: 6mi
Dew Point: 45°   Wind: 3mph
Humidity: 93%   Direction: 340°NNW
Pressure: 30.3"   Gusts: NA
Location:  50.45°N, 3.82°E
Report Text: EBCV 240925Z AUTO 34003KT 9999 NCD 08/07 Q1026 BLU
Loading
Personal Weather Stations






























Interactive Weather Map New forecast layout! Learn more

10-Day Weather Forecast

Advertisements
Track Severe Weather on mobile